EXS72RV LPFR-EGNT
Flight info
| Callsign | EXS72RV |
|---|---|
| Flight time | N/A |
| Altitude | 36000 |
| Route | ELVAR DCT BARDI DCT ZMR DCT NUBLO DCT RONSI DCT DELOG DCT RUSIB DCT NOZHU DCT BHD DCT WIGGU DCT AZCAL DCT AVTIC DCT ANJAK N38 NOKIN UP17 POL |
| Aircraft | B738/M-SDE2E3FGHIRWXY/LB1 |
Departure
| Time | N/A |
|---|---|
| Airport | Faro - Gago Coutinho International Airport (LPFR) |
Arrival
| Time | 2026-04-30 12:37 |
|---|---|
| Airport | Newcastle International Airport (EGNT) |
| Time | Latitude | Longitude | Altitude | Speed | Heading |
|---|---|---|---|---|---|
| 2026-04-30 11:04 | 44.61330 | -3.97843 | 36072 ft | 433 kts | 359° |
| 2026-04-30 11:04 | 44.67371 | -3.97627 | 36072 ft | 434 kts | 359° |
| 2026-04-30 11:05 | 44.73407 | -3.97409 | 36071 ft | 434 kts | 359° |
| 2026-04-30 11:05 | 44.79407 | -3.97193 | 36071 ft | 434 kts | 359° |
| 2026-04-30 11:06 | 44.85457 | -3.96975 | 36071 ft | 435 kts | 359° |
| 2026-04-30 11:06 | 44.91500 | -3.96757 | 36071 ft | 435 kts | 359° |
| 2026-04-30 11:07 | 44.97560 | -3.96539 | 36070 ft | 435 kts | 359° |
| 2026-04-30 11:07 | 45.03615 | -3.96319 | 36071 ft | 435 kts | 359° |
| 2026-04-30 11:08 | 45.09632 | -3.96101 | 36064 ft | 435 kts | 359° |
| 2026-04-30 11:08 | 45.15685 | -3.95881 | 36066 ft | 435 kts | 359° |
| 2026-04-30 11:09 | 45.21735 | -3.95660 | 36065 ft | 435 kts | 359° |
| 2026-04-30 11:09 | 45.27799 | -3.95439 | 36065 ft | 435 kts | 359° |
| 2026-04-30 11:10 | 45.33846 | -3.95218 | 36069 ft | 435 kts | 359° |
| 2026-04-30 11:10 | 45.39905 | -3.94995 | 36067 ft | 436 kts | 359° |
| 2026-04-30 11:11 | 45.45983 | -3.94772 | 36065 ft | 436 kts | 359° |
| 2026-04-30 11:11 | 45.52054 | -3.94549 | 36070 ft | 436 kts | 359° |
| 2026-04-30 11:12 | 45.58091 | -3.94326 | 36066 ft | 436 kts | 359° |
| 2026-04-30 11:12 | 45.64162 | -3.94101 | 36059 ft | 437 kts | 359° |
| 2026-04-30 11:13 | 45.70245 | -3.93876 | 36064 ft | 437 kts | 360° |
| 2026-04-30 11:13 | 45.76333 | -3.93650 | 36062 ft | 438 kts | 360° |
| 2026-04-30 11:14 | 45.82429 | -3.93422 | 36055 ft | 439 kts | 360° |
| 2026-04-30 11:14 | 45.88534 | -3.93195 | 36059 ft | 440 kts | 0° |
| 2026-04-30 11:15 | 45.94658 | -3.92966 | 36048 ft | 441 kts | 0° |
| 2026-04-30 11:15 | 45.99775 | -3.92774 | 36062 ft | 443 kts | 360° |
| 2026-04-30 11:16 | 46.05947 | -3.92543 | 36067 ft | 444 kts | 0° |
| 2026-04-30 11:16 | 46.12140 | -3.92310 | 36057 ft | 446 kts | 0° |
| 2026-04-30 11:17 | 46.18360 | -3.92075 | 36057 ft | 448 kts | 0° |
| 2026-04-30 11:17 | 46.24592 | -3.91840 | 36055 ft | 449 kts | 0° |
| 2026-04-30 11:18 | 46.30835 | -3.91603 | 36052 ft | 449 kts | 0° |
| 2026-04-30 11:18 | 46.40207 | -3.91247 | 36057 ft | 449 kts | 0° |
| 2026-04-30 11:19 | 46.46454 | -3.91009 | 36055 ft | 449 kts | 0° |
| 2026-04-30 11:19 | 46.52706 | -3.90770 | 36046 ft | 449 kts | 0° |
| 2026-04-30 11:20 | 46.58956 | -3.90531 | 36051 ft | 449 kts | 0° |
| 2026-04-30 11:20 | 46.65152 | -3.90293 | 36049 ft | 449 kts | 0° |
| 2026-04-30 11:21 | 46.71433 | -3.90052 | 36048 ft | 448 kts | 0° |
| 2026-04-30 11:21 | 46.77629 | -3.89813 | 36043 ft | 448 kts | 0° |
| 2026-04-30 11:22 | 46.83857 | -3.89572 | 36041 ft | 448 kts | 0° |
| 2026-04-30 11:22 | 46.90088 | -3.89331 | 36041 ft | 448 kts | 0° |
| 2026-04-30 11:23 | 46.96325 | -3.89089 | 36042 ft | 448 kts | 1° |
| 2026-04-30 11:24 | 47.05686 | -3.88724 | 36043 ft | 449 kts | 1° |
| 2026-04-30 11:24 | 47.11929 | -3.88480 | 36041 ft | 450 kts | 1° |
| 2026-04-30 11:25 | 47.21329 | -3.88112 | 36039 ft | 451 kts | 1° |
| 2026-04-30 11:26 | 47.33892 | -3.87618 | 36031 ft | 452 kts | 1° |
| 2026-04-30 11:26 | 47.40195 | -3.87369 | 36030 ft | 453 kts | 1° |
| 2026-04-30 11:27 | 47.46468 | -3.87121 | 36029 ft | 454 kts | 1° |
| 2026-04-30 11:27 | 47.52784 | -3.86871 | 36024 ft | 454 kts | 1° |
| 2026-04-30 11:28 | 47.62270 | -3.86493 | 36028 ft | 455 kts | 1° |
| 2026-04-30 11:29 | 47.68595 | -3.86241 | 36023 ft | 455 kts | 1° |
| 2026-04-30 11:29 | 47.78097 | -3.85860 | 36016 ft | 455 kts | 1° |
| 2026-04-30 11:30 | 47.87604 | -3.85478 | 36022 ft | 456 kts | 1° |
| 2026-04-30 11:31 | 47.93940 | -3.85223 | 36020 ft | 456 kts | 1° |
| 2026-04-30 11:31 | 48.00289 | -3.84966 | 36014 ft | 456 kts | 1° |
| 2026-04-30 11:32 | 48.06630 | -3.84709 | 36020 ft | 456 kts | 1° |
| 2026-04-30 11:32 | 48.12942 | -3.84452 | 36018 ft | 456 kts | 1° |
| 2026-04-30 11:33 | 48.22468 | -3.84064 | 36007 ft | 457 kts | 2° |
| 2026-04-30 11:33 | 48.28829 | -3.83803 | 36011 ft | 458 kts | 1° |
| 2026-04-30 11:34 | 48.35214 | -3.83541 | 36004 ft | 459 kts | 2° |
| 2026-04-30 11:34 | 48.41601 | -3.83278 | 36002 ft | 460 kts | 2° |
| 2026-04-30 11:35 | 48.48004 | -3.83014 | 36006 ft | 461 kts | 2° |
| 2026-04-30 11:35 | 48.54411 | -3.82748 | 35992 ft | 461 kts | 2° |
| 2026-04-30 11:36 | 48.60833 | -3.82481 | 35998 ft | 461 kts | 2° |
| 2026-04-30 11:36 | 48.67254 | -3.82213 | 35993 ft | 461 kts | 2° |
| 2026-04-30 11:37 | 48.73636 | -3.81945 | 35998 ft | 461 kts | 2° |
| 2026-04-30 11:37 | 48.80062 | -3.81673 | 36009 ft | 461 kts | 2° |
| 2026-04-30 11:38 | 48.86471 | -3.81400 | 36023 ft | 460 kts | 2° |
| 2026-04-30 11:38 | 48.92880 | -3.81120 | 36036 ft | 460 kts | 2° |
| 2026-04-30 11:39 | 48.99246 | -3.80847 | 36039 ft | 459 kts | 2° |
| 2026-04-30 11:39 | 49.05633 | -3.80487 | 36040 ft | 459 kts | 3° |
| 2026-04-30 11:40 | 49.12018 | -3.80090 | 36047 ft | 459 kts | 3° |
| 2026-04-30 11:40 | 49.18403 | -3.79693 | 36046 ft | 459 kts | 3° |
| 2026-04-30 11:41 | 49.24802 | -3.79300 | 36052 ft | 460 kts | 3° |
| 2026-04-30 11:41 | 49.31158 | -3.78910 | 36054 ft | 460 kts | 3° |
| 2026-04-30 11:42 | 49.37562 | -3.78515 | 36059 ft | 461 kts | 3° |
| 2026-04-30 11:42 | 49.43981 | -3.78118 | 36058 ft | 461 kts | 3° |
| 2026-04-30 11:43 | 49.50415 | -3.77717 | 36060 ft | 462 kts | 3° |
| 2026-04-30 11:43 | 49.56845 | -3.77314 | 36067 ft | 463 kts | 3° |
| 2026-04-30 11:44 | 49.63252 | -3.76906 | 36069 ft | 463 kts | 3° |
| 2026-04-30 11:44 | 49.69693 | -3.76400 | 36060 ft | 463 kts | 8° |
| 2026-04-30 11:45 | 49.75954 | -3.74268 | 36082 ft | 461 kts | 16° |
| 2026-04-30 11:45 | 49.82179 | -3.71799 | 36083 ft | 461 kts | 16° |
| 2026-04-30 11:46 | 49.88402 | -3.69362 | 36081 ft | 462 kts | 15° |
| 2026-04-30 11:46 | 49.94598 | -3.66977 | 36093 ft | 462 kts | 15° |
| 2026-04-30 11:47 | 50.00841 | -3.64583 | 36099 ft | 462 kts | 15° |
| 2026-04-30 11:47 | 50.07070 | -3.62187 | 36101 ft | 461 kts | 15° |
| 2026-04-30 11:48 | 50.13296 | -3.59783 | 36112 ft | 460 kts | 15° |
| 2026-04-30 11:48 | 50.19505 | -3.57377 | 36116 ft | 459 kts | 15° |
| 2026-04-30 11:49 | 50.25713 | -3.54963 | 36123 ft | 458 kts | 15° |
| 2026-04-30 11:49 | 50.31860 | -3.52561 | 36124 ft | 458 kts | 15° |
| 2026-04-30 11:50 | 50.38040 | -3.50147 | 36128 ft | 457 kts | 15° |
| 2026-04-30 11:50 | 50.44297 | -3.48322 | 36136 ft | 459 kts | 8° |
| 2026-04-30 11:51 | 50.50648 | -3.47243 | 36136 ft | 459 kts | 7° |
| 2026-04-30 11:51 | 50.56995 | -3.46171 | 36139 ft | 459 kts | 7° |
| 2026-04-30 11:52 | 50.63349 | -3.45001 | 36128 ft | 459 kts | 8° |
| 2026-04-30 11:52 | 50.69682 | -3.43788 | 36130 ft | 459 kts | 8° |
| 2026-04-30 11:53 | 50.76036 | -3.42561 | 36131 ft | 460 kts | 8° |
| 2026-04-30 11:53 | 50.82392 | -3.41335 | 36128 ft | 460 kts | 8° |
| 2026-04-30 11:54 | 50.88743 | -3.40107 | 36129 ft | 461 kts | 8° |
| 2026-04-30 11:54 | 50.95074 | -3.38879 | 36140 ft | 461 kts | 8° |
| 2026-04-30 11:55 | 51.01441 | -3.37640 | 36132 ft | 462 kts | 8° |
| 2026-04-30 11:55 | 51.07822 | -3.36393 | 36139 ft | 462 kts | 8° |
| 2026-04-30 11:56 | 51.14197 | -3.35138 | 36137 ft | 462 kts | 8° |
| 2026-04-30 11:56 | 51.20577 | -3.33888 | 36141 ft | 462 kts | 8° |
| 2026-04-30 11:57 | 51.26946 | -3.32629 | 36131 ft | 461 kts | 8° |
| 2026-04-30 11:57 | 51.33300 | -3.31355 | 36123 ft | 459 kts | 8° |
| 2026-04-30 11:58 | 51.39621 | -3.30075 | 36126 ft | 457 kts | 8° |
| 2026-04-30 11:58 | 51.45918 | -3.28796 | 36132 ft | 456 kts | 8° |
| 2026-04-30 11:59 | 51.52199 | -3.27516 | 36130 ft | 454 kts | 8° |
| 2026-04-30 11:59 | 51.58471 | -3.26235 | 36140 ft | 454 kts | 9° |
| 2026-04-30 12:00 | 51.64731 | -3.24952 | 36247 ft | 454 kts | 9° |
| 2026-04-30 12:00 | 51.70995 | -3.23663 | 36266 ft | 454 kts | 9° |
| 2026-04-30 12:01 | 51.77267 | -3.22367 | 36265 ft | 455 kts | 9° |
| 2026-04-30 12:01 | 51.83546 | -3.21060 | 36260 ft | 456 kts | 9° |
| 2026-04-30 12:02 | 51.89844 | -3.19757 | 36243 ft | 457 kts | 9° |
| 2026-04-30 12:02 | 51.96194 | -3.18978 | 36225 ft | 459 kts | 4° |
| 2026-04-30 12:03 | 52.05763 | -3.18433 | 36170 ft | 461 kts | 3° |
| 2026-04-30 12:04 | 52.12172 | -3.17997 | 36178 ft | 462 kts | 4° |
| 2026-04-30 12:04 | 52.18598 | -3.17508 | 36184 ft | 462 kts | 4° |
| 2026-04-30 12:05 | 52.25028 | -3.17005 | 36178 ft | 463 kts | 4° |
| 2026-04-30 12:05 | 52.31468 | -3.16503 | 36187 ft | 464 kts | 4° |
| 2026-04-30 12:06 | 52.37912 | -3.15999 | 36188 ft | 464 kts | 4° |
| 2026-04-30 12:06 | 52.44363 | -3.15494 | 36195 ft | 464 kts | 4° |
| 2026-04-30 12:07 | 52.50819 | -3.14986 | 36187 ft | 464 kts | 4° |
| 2026-04-30 12:07 | 52.56188 | -3.14560 | 36204 ft | 465 kts | 4° |
| 2026-04-30 12:08 | 52.62647 | -3.14041 | 36202 ft | 465 kts | 4° |
| 2026-04-30 12:08 | 52.69100 | -3.13483 | 36198 ft | 464 kts | 8° |
| 2026-04-30 12:09 | 52.75270 | -3.10838 | 36150 ft | 457 kts | 28° |
| 2026-04-30 12:09 | 52.80963 | -3.06269 | 36201 ft | 455 kts | 30° |
| 2026-04-30 12:10 | 52.86675 | -3.01683 | 36192 ft | 457 kts | 28° |
| 2026-04-30 12:10 | 52.92489 | -2.97367 | 36209 ft | 459 kts | 26° |
| 2026-04-30 12:11 | 52.98279 | -2.93414 | 35932 ft | 441 kts | 26° |
| 2026-04-30 12:11 | 53.01111 | -2.91468 | 35425 ft | 441 kts | 26° |
| 2026-04-30 12:11 | 53.03946 | -2.89506 | 34888 ft | 441 kts | 26° |
| 2026-04-30 12:11 | 53.06773 | -2.87542 | 34428 ft | 440 kts | 27° |
| 2026-04-30 12:12 | 53.09590 | -2.85581 | 34040 ft | 436 kts | 27° |
| 2026-04-30 12:12 | 53.12342 | -2.83663 | 33631 ft | 433 kts | 27° |
| 2026-04-30 12:12 | 53.15110 | -2.81731 | 33201 ft | 430 kts | 27° |
| 2026-04-30 12:12 | 53.17854 | -2.79812 | 32788 ft | 427 kts | 27° |
| 2026-04-30 12:13 | 53.20592 | -2.77895 | 32353 ft | 425 kts | 27° |
| 2026-04-30 12:13 | 53.23301 | -2.75995 | 31924 ft | 422 kts | 27° |
| 2026-04-30 12:13 | 53.26010 | -2.74094 | 31509 ft | 421 kts | 27° |
| 2026-04-30 12:13 | 53.28709 | -2.72195 | 31097 ft | 419 kts | 27° |
| 2026-04-30 12:14 | 53.31380 | -2.70315 | 30728 ft | 416 kts | 27° |
| 2026-04-30 12:14 | 53.34045 | -2.68437 | 30353 ft | 414 kts | 27° |
| 2026-04-30 12:14 | 53.36692 | -2.66569 | 29929 ft | 412 kts | 27° |
| 2026-04-30 12:14 | 53.39320 | -2.64711 | 29496 ft | 408 kts | 27° |
| 2026-04-30 12:15 | 53.41928 | -2.62867 | 29063 ft | 406 kts | 28° |
| 2026-04-30 12:15 | 53.44518 | -2.61031 | 28632 ft | 403 kts | 27° |
| 2026-04-30 12:15 | 53.47088 | -2.59208 | 28215 ft | 400 kts | 27° |
| 2026-04-30 12:15 | 53.49641 | -2.57393 | 27772 ft | 397 kts | 27° |
| 2026-04-30 12:16 | 53.52182 | -2.55586 | 27396 ft | 394 kts | 27° |
| 2026-04-30 12:16 | 53.54696 | -2.53795 | 27020 ft | 391 kts | 27° |
| 2026-04-30 12:16 | 53.57196 | -2.52012 | 26635 ft | 389 kts | 27° |
| 2026-04-30 12:16 | 53.59680 | -2.50237 | 26256 ft | 387 kts | 27° |
| 2026-04-30 12:17 | 53.64600 | -2.46715 | 25542 ft | 382 kts | 27° |
| 2026-04-30 12:17 | 53.67035 | -2.44969 | 25179 ft | 379 kts | 27° |
| 2026-04-30 12:17 | 53.69454 | -2.43233 | 24820 ft | 377 kts | 27° |
| 2026-04-30 12:18 | 53.71860 | -2.41503 | 24465 ft | 374 kts | 27° |
| 2026-04-30 12:18 | 53.74217 | -2.39807 | 24118 ft | 372 kts | 27° |
| 2026-04-30 12:18 | 53.76589 | -2.38098 | 23779 ft | 370 kts | 26° |
| 2026-04-30 12:18 | 53.78946 | -2.36397 | 23376 ft | 367 kts | 26° |
| 2026-04-30 12:19 | 53.81286 | -2.34707 | 22972 ft | 365 kts | 26° |
| 2026-04-30 12:19 | 53.83619 | -2.33019 | 22573 ft | 364 kts | 26° |
| 2026-04-30 12:19 | 53.85941 | -2.31337 | 22179 ft | 362 kts | 26° |
| 2026-04-30 12:19 | 53.88244 | -2.29668 | 21815 ft | 360 kts | 26° |
| 2026-04-30 12:20 | 53.90542 | -2.28000 | 21423 ft | 358 kts | 26° |
| 2026-04-30 12:20 | 53.92840 | -2.26329 | 21043 ft | 356 kts | 26° |
| 2026-04-30 12:20 | 53.95110 | -2.24677 | 20689 ft | 354 kts | 26° |
| 2026-04-30 12:20 | 53.97368 | -2.23033 | 20327 ft | 353 kts | 26° |
| 2026-04-30 12:21 | 53.99620 | -2.21390 | 19967 ft | 351 kts | 26° |
| 2026-04-30 12:21 | 54.01832 | -2.19775 | 19626 ft | 350 kts | 26° |
| 2026-04-30 12:21 | 54.04093 | -2.18121 | 19273 ft | 349 kts | 26° |
| 2026-04-30 12:21 | 54.06287 | -2.16514 | 18936 ft | 347 kts | 26° |
| 2026-04-30 12:22 | 54.08439 | -2.14937 | 18644 ft | 345 kts | 26° |
| 2026-04-30 12:22 | 54.10646 | -2.13319 | 18235 ft | 345 kts | 26° |
| 2026-04-30 12:22 | 54.12837 | -2.11709 | 17920 ft | 341 kts | 26° |
| 2026-04-30 12:22 | 54.15007 | -2.10115 | 17619 ft | 337 kts | 26° |
| 2026-04-30 12:23 | 54.17141 | -2.08545 | 17321 ft | 333 kts | 26° |
| 2026-04-30 12:23 | 54.19272 | -2.06975 | 16921 ft | 333 kts | 26° |
| 2026-04-30 12:23 | 54.21393 | -2.05409 | 16550 ft | 332 kts | 26° |
| 2026-04-30 12:23 | 54.23511 | -2.03845 | 16206 ft | 330 kts | 27° |
| 2026-04-30 12:24 | 54.25614 | -2.02289 | 15834 ft | 329 kts | 26° |
| 2026-04-30 12:24 | 54.27706 | -2.00740 | 15456 ft | 328 kts | 27° |
| 2026-04-30 12:24 | 54.29794 | -1.99191 | 15156 ft | 326 kts | 27° |
| 2026-04-30 12:24 | 54.31870 | -1.97651 | 14841 ft | 324 kts | 27° |
| 2026-04-30 12:25 | 54.33995 | -1.96332 | 14505 ft | 329 kts | 12° |
| 2026-04-30 12:25 | 54.36273 | -1.96135 | 14124 ft | 326 kts | 3° |
| 2026-04-30 12:25 | 54.38545 | -1.96105 | 13489 ft | 327 kts | 3° |
| 2026-04-30 12:25 | 54.40815 | -1.96075 | 12930 ft | 325 kts | 3° |
| 2026-04-30 12:26 | 54.43061 | -1.96031 | 12493 ft | 319 kts | 3° |
| 2026-04-30 12:26 | 54.45259 | -1.95975 | 12061 ft | 314 kts | 3° |
| 2026-04-30 12:26 | 54.47433 | -1.95906 | 11569 ft | 312 kts | 4° |
| 2026-04-30 12:26 | 54.49571 | -1.95830 | 11072 ft | 310 kts | 4° |
| 2026-04-30 12:27 | 54.51756 | -1.95746 | 10570 ft | 309 kts | 3° |
| 2026-04-30 12:27 | 54.53895 | -1.95662 | 10114 ft | 307 kts | 3° |
| 2026-04-30 12:27 | 54.55995 | -1.95577 | 9608 ft | 304 kts | 4° |
| 2026-04-30 12:27 | 54.58103 | -1.95492 | 9100 ft | 303 kts | 4° |
| 2026-04-30 12:28 | 54.60204 | -1.95405 | 8599 ft | 301 kts | 4° |
| 2026-04-30 12:28 | 54.62290 | -1.95319 | 8140 ft | 299 kts | 4° |
| 2026-04-30 12:28 | 54.64358 | -1.95233 | 7705 ft | 296 kts | 4° |
| 2026-04-30 12:28 | 54.66412 | -1.95147 | 7203 ft | 296 kts | 4° |
| 2026-04-30 12:29 | 54.68468 | -1.95061 | 6753 ft | 294 kts | 4° |
| 2026-04-30 12:29 | 54.70496 | -1.94977 | 6345 ft | 291 kts | 4° |
| 2026-04-30 12:29 | 54.72513 | -1.94893 | 5900 ft | 288 kts | 4° |
| 2026-04-30 12:29 | 54.74515 | -1.94809 | 5421 ft | 288 kts | 4° |
| 2026-04-30 12:30 | 54.76531 | -1.94722 | 5070 ft | 291 kts | 4° |
| 2026-04-30 12:30 | 54.78561 | -1.94635 | 4741 ft | 292 kts | 4° |
| 2026-04-30 12:30 | 54.80586 | -1.94549 | 4470 ft | 290 kts | 4° |
| 2026-04-30 12:30 | 54.82559 | -1.94467 | 4285 ft | 276 kts | 4° |
| 2026-04-30 12:31 | 54.84432 | -1.94389 | 4171 ft | 263 kts | 4° |
| 2026-04-30 12:31 | 54.86192 | -1.94313 | 4046 ft | 250 kts | 4° |
| 2026-04-30 12:31 | 54.87899 | -1.94237 | 3961 ft | 242 kts | 4° |
| 2026-04-30 12:31 | 54.89571 | -1.94164 | 3914 ft | 241 kts | 4° |
| 2026-04-30 12:32 | 54.91262 | -1.94090 | 3715 ft | 243 kts | 4° |
| 2026-04-30 12:32 | 54.92933 | -1.94020 | 3508 ft | 236 kts | 4° |
| 2026-04-30 12:32 | 54.94538 | -1.93957 | 3275 ft | 225 kts | 4° |
| 2026-04-30 12:32 | 54.96072 | -1.93887 | 3081 ft | 216 kts | 7° |
| 2026-04-30 12:33 | 54.97372 | -1.93017 | 2838 ft | 195 kts | 55° |
| 2026-04-30 12:33 | 54.97940 | -1.90993 | 2755 ft | 185 kts | 71° |
| 2026-04-30 12:33 | 54.98490 | -1.89045 | 2566 ft | 178 kts | 69° |
| 2026-04-30 12:33 | 54.99005 | -1.87164 | 2387 ft | 164 kts | 70° |
| 2026-04-30 12:34 | 54.99465 | -1.85422 | 2169 ft | 156 kts | 71° |
| 2026-04-30 12:34 | 54.99912 | -1.83710 | 1978 ft | 155 kts | 71° |
| 2026-04-30 12:34 | 55.00356 | -1.82019 | 1756 ft | 152 kts | 70° |
| 2026-04-30 12:34 | 55.00791 | -1.80367 | 1520 ft | 147 kts | 70° |
| 2026-04-30 12:35 | 55.01203 | -1.78796 | 1392 ft | 139 kts | 71° |
| 2026-04-30 12:35 | 55.01598 | -1.77307 | 1204 ft | 134 kts | 69° |
| 2026-04-30 12:35 | 55.01983 | -1.75832 | 982 ft | 134 kts | 69° |
| 2026-04-30 12:35 | 55.02390 | -1.74326 | 822 ft | 140 kts | 69° |
| 2026-04-30 12:36 | 55.02793 | -1.72777 | 620 ft | 139 kts | 69° |
| 2026-04-30 12:36 | 55.03197 | -1.71246 | 417 ft | 139 kts | 68° |
| 2026-04-30 12:36 | 55.03590 | -1.69775 | 261 ft | 129 kts | 69° |
| 2026-04-30 12:36 | 55.03891 | -1.68613 | 249 ft | 57 kts | 65° |
| 2026-04-30 12:37 | 55.04028 | -1.68311 | 247 ft | 31 kts | 37° |
| 2026-04-30 12:37 | 55.04119 | -1.68235 | 247 ft | 10 kts | 344° |
| 2026-04-30 12:37 | 55.04144 | -1.68330 | 247 ft | 10 kts | 245° |
| 2026-04-30 12:37 | 55.04111 | -1.68451 | 247 ft | 12 kts | 246° |
| 2026-04-30 12:38 | 55.04075 | -1.68594 | 248 ft | 14 kts | 246° |
| 2026-04-30 12:38 | 55.04033 | -1.68757 | 249 ft | 15 kts | 245° |
| 2026-04-30 12:38 | 55.03985 | -1.68934 | 250 ft | 16 kts | 245° |
| 2026-04-30 12:38 | 55.03936 | -1.69123 | 252 ft | 19 kts | 245° |
| 2026-04-30 12:39 | 55.03873 | -1.69359 | 254 ft | 23 kts | 244° |
| 2026-04-30 12:39 | 55.03814 | -1.69607 | 256 ft | 22 kts | 253° |
| 2026-04-30 12:39 | 55.03783 | -1.69860 | 258 ft | 21 kts | 261° |
| 2026-04-30 12:39 | 55.03773 | -1.70114 | 261 ft | 21 kts | 270° |
| 2026-04-30 12:40 | 55.03781 | -1.70345 | 266 ft | 15 kts | 266° |
| 2026-04-30 12:40 | 55.03719 | -1.70430 | 266 ft | 6 kts | 198° |
| 2026-04-30 12:40 | 55.03702 | -1.70481 | 266 ft | 5 kts | 265° |
| 2026-04-30 12:40 | 55.03698 | -1.70552 | 266 ft | 6 kts | 264° |
| 2026-04-30 12:41 | 55.03697 | -1.70558 | 266 ft | 0 kts | 263° |